createdAt,value
2022-12-01T05:19:12.765Z,100.00
2022-12-01T05:22:15.958Z,100.00
2022-12-01T05:25:19.296Z,100.00
2022-12-01T05:28:24.385Z,100.00
2022-12-01T05:31:26.962Z,100.00
2022-12-01T05:34:30.301Z,100.00
2022-12-01T05:37:34.645Z,100.00
2022-12-01T05:40:38.375Z,100.00
2022-12-01T05:43:40.905Z,100.00
2022-12-01T05:46:43.754Z,100.00
2022-12-01T05:49:46.273Z,100.00
2022-12-01T05:52:49.259Z,100.00
2022-12-01T05:55:55.452Z,100.00
2022-12-01T05:58:58.129Z,100.00
2022-12-01T06:02:00.688Z,100.00
2022-12-01T06:05:03.601Z,100.00
2022-12-01T06:08:06.247Z,100.00
2022-12-01T06:11:09.179Z,100.00
2022-12-01T06:14:11.630Z,100.00
2022-12-01T06:17:14.465Z,100.00
2022-12-01T06:20:17.052Z,100.00
2022-12-01T06:23:19.732Z,100.00
2022-12-01T06:26:22.306Z,100.00
2022-12-01T06:29:25.281Z,100.00
2022-12-01T06:32:27.792Z,100.00
2022-12-01T06:35:32.116Z,100.00
2022-12-01T06:38:36.091Z,100.00
2022-12-01T06:41:39.366Z,100.00
2022-12-01T06:44:41.870Z,100.00
2022-12-01T06:47:44.646Z,100.00
2022-12-01T06:50:47.271Z,100.00
2022-12-01T06:53:54.693Z,100.00
2022-12-01T06:56:59.764Z,100.00
2022-12-01T07:00:04.267Z,100.00
2022-12-01T07:03:08.539Z,100.00
2022-12-01T07:06:11.348Z,100.00
2022-12-01T07:09:13.966Z,100.00
2022-12-01T07:12:16.718Z,100.00
2022-12-01T07:15:20.139Z,100.00
2022-12-01T07:18:23.342Z,100.00
2022-12-01T07:21:26.130Z,100.00
2022-12-01T07:24:30.712Z,100.00
2022-12-01T07:27:33.140Z,100.00
2022-12-01T07:30:36.034Z,100.00
2022-12-01T07:33:38.743Z,100.00
2022-12-01T07:36:41.805Z,100.00
2022-12-01T07:39:44.402Z,100.00
2022-12-01T07:42:47.186Z,100.00
2022-12-01T07:45:49.788Z,100.00
2022-12-01T07:48:55.263Z,100.00
2022-12-01T07:51:58.023Z,100.00
2022-12-01T07:55:00.875Z,100.00
2022-12-01T07:58:03.423Z,100.00
2022-12-01T08:01:12.808Z,100.00
2022-12-01T08:04:16.106Z,100.00
2022-12-01T08:07:18.796Z,100.00
2022-12-01T08:10:21.760Z,100.00
2022-12-01T08:13:24.165Z,100.00
2022-12-01T08:16:28.569Z,100.00
2022-12-01T08:19:31.308Z,100.00
2022-12-01T08:22:34.991Z,100.00
2022-12-01T08:25:37.497Z,100.00
2022-12-01T08:28:41.282Z,100.00
2022-12-01T08:31:43.796Z,100.00
2022-12-01T08:34:52.948Z,100.00
2022-12-01T08:37:55.836Z,100.00
2022-12-01T08:41:02.650Z,100.00
2022-12-01T08:44:05.262Z,100.00
2022-12-01T08:47:07.965Z,100.00
2022-12-01T08:50:11.232Z,100.00
2022-12-01T08:53:14.013Z,100.00
2022-12-01T08:56:21.979Z,100.00
2022-12-01T08:59:25.034Z,100.00
2022-12-01T09:02:27.837Z,100.00
2022-12-01T09:05:30.798Z,100.00
2022-12-01T09:08:34.081Z,100.00
2022-12-01T09:11:37.534Z,100.00
2022-12-01T09:14:48.133Z,100.00
2022-12-01T09:17:50.913Z,100.00
2022-12-01T09:20:53.941Z,100.00
2022-12-01T09:23:57.145Z,100.00
2022-12-01T09:27:00.043Z,100.00
2022-12-01T09:30:02.955Z,100.00
2022-12-01T09:33:05.514Z,75.24
2022-12-01T09:36:11.207Z,67.30
2022-12-01T09:39:18.769Z,60.51
2022-12-01T09:42:32.177Z,55.00
2022-12-01T09:45:42.855Z,53.98
2022-12-01T09:48:47.880Z,51.51
2022-12-01T09:51:52.648Z,50.63
2022-12-01T09:54:57.998Z,56.17
2022-12-01T09:58:03.317Z,58.35
2022-12-01T10:01:06.174Z,63.14
2022-12-01T10:04:25.091Z,67.24
2022-12-01T10:07:34.048Z,72.25
2022-12-01T10:10:42.869Z,70.92
2022-12-01T10:13:45.506Z,69.89
2022-12-01T10:17:12.073Z,71.62
2022-12-01T10:20:34.285Z,71.56
2022-12-01T10:23:50.766Z,76.37
2022-12-01T10:27:26.841Z,76.18
2022-12-01T10:30:29.783Z,74.95
2022-12-01T10:34:31.128Z,73.62
2022-12-01T10:37:59.211Z,72.29
2022-12-01T10:41:03.815Z,74.18
2022-12-01T10:44:08.653Z,73.95
2022-12-01T10:47:23.264Z,73.60
2022-12-01T10:50:28.290Z,73.92
2022-12-01T10:53:33.685Z,72.77
2022-12-01T10:56:43.927Z,74.79
2022-12-01T11:00:02.039Z,73.59
2022-12-01T11:03:22.335Z,69.26
2022-12-01T11:06:27.852Z,73.09
2022-12-01T11:09:31.394Z,71.16
2022-12-01T11:12:34.644Z,64.76
2022-12-01T11:15:53.441Z,67.91
2022-12-01T11:19:25.119Z,69.53
2022-12-01T11:22:31.822Z,70.61
2022-12-01T11:25:34.404Z,70.41
2022-12-01T11:28:43.121Z,63.49
2022-12-01T11:31:49.451Z,62.07
2022-12-01T11:35:02.354Z,69.29
2022-12-01T11:38:29.173Z,72.66
2022-12-01T11:41:33.064Z,76.58
2022-12-01T11:44:51.036Z,77.59
2022-12-01T11:48:07.094Z,77.58
2022-12-01T11:51:39.159Z,77.54
2022-12-01T11:54:55.891Z,77.18
2022-12-01T11:58:03.174Z,78.55
2022-12-01T12:01:21.960Z,76.97
2022-12-01T12:04:46.201Z,77.38
2022-12-01T12:08:01.577Z,76.15
2022-12-01T12:11:20.876Z,76.65
2022-12-01T12:14:48.777Z,79.15
2022-12-01T12:17:58.393Z,80.48
2022-12-01T12:21:30.024Z,78.04
2022-12-01T12:24:41.522Z,79.52
2022-12-01T12:28:28.493Z,79.32
2022-12-01T12:31:38.296Z,80.05
2022-12-01T12:34:52.394Z,79.93
2022-12-01T12:38:09.115Z,79.44
2022-12-01T12:41:30.578Z,79.98
2022-12-01T12:45:02.648Z,80.00
2022-12-01T12:48:17.845Z,80.50
2022-12-01T12:51:34.882Z,80.33
2022-12-01T12:54:47.181Z,80.99
2022-12-01T12:57:55.449Z,80.14
2022-12-01T13:01:03.609Z,80.51
2022-12-01T13:04:22.721Z,79.94
2022-12-01T13:07:47.260Z,80.77
2022-12-01T13:11:03.114Z,82.12
2022-12-01T13:14:16.018Z,82.43
2022-12-01T13:17:38.601Z,82.93
2022-12-01T13:20:41.869Z,83.71
2022-12-01T13:23:47.053Z,84.26
2022-12-01T13:27:07.749Z,84.13
2022-12-01T13:30:20.132Z,84.50
2022-12-01T13:33:22.809Z,83.55
2022-12-01T13:39:54.629Z,83.25
2022-12-01T13:43:08.624Z,83.28
2022-12-01T13:46:25.945Z,83.57
2022-12-01T13:49:47.745Z,82.61
2022-12-01T13:52:50.607Z,83.42
2022-12-01T13:55:55.926Z,84.26
2022-12-01T13:58:58.433Z,85.47
2022-12-01T14:02:16.224Z,85.72
2022-12-01T14:05:24.699Z,86.46
2022-12-01T14:08:29.707Z,87.11
2022-12-01T14:11:34.724Z,87.17
2022-12-01T14:14:44.569Z,87.37
2022-12-01T14:17:47.970Z,87.69
2022-12-01T14:20:50.668Z,87.59
2022-12-01T14:24:02.428Z,88.17
2022-12-01T14:27:06.421Z,89.45
2022-12-01T14:30:40.077Z,89.31
2022-12-01T14:33:52.233Z,89.65
2022-12-01T14:37:03.768Z,89.58
2022-12-01T14:40:13.698Z,90.04
2022-12-01T14:43:35.187Z,90.77
2022-12-01T14:46:42.189Z,90.69
2022-12-01T14:49:59.631Z,90.48
2022-12-01T14:53:28.775Z,91.04
2022-12-01T14:56:33.044Z,93.59
2022-12-01T14:59:36.816Z,93.80
2022-12-01T15:02:43.776Z,94.50
2022-12-01T15:05:46.435Z,95.99
2022-12-01T15:12:31.553Z,98.26
2022-12-01T15:15:34.308Z,99.87
2022-12-01T15:18:37.266Z,100.00
2022-12-01T15:21:40.091Z,99.87
2022-12-01T15:24:43.578Z,99.31
2022-12-01T15:27:46.505Z,98.37
2022-12-01T15:30:54.855Z,99.60
2022-12-01T15:33:57.888Z,99.76
2022-12-01T15:37:04.680Z,100.00
2022-12-01T15:40:59.718Z,99.02
2022-12-01T15:43:38.983Z,98.57
2022-12-01T15:46:42.169Z,99.63
2022-12-01T15:49:49.223Z,100.00
2022-12-01T15:52:52.374Z,100.00
2022-12-01T15:55:59.078Z,100.00
2022-12-01T15:59:11.994Z,100.00
2022-12-01T16:02:20.629Z,100.00
2022-12-01T16:05:35.365Z,100.00
2022-12-01T16:08:38.104Z,100.00
2022-12-01T16:11:41.046Z,100.00
2022-12-01T16:15:03.071Z,100.00
2022-12-01T16:18:28.484Z,100.00
2022-12-01T16:21:42.173Z,100.00
2022-12-01T16:24:53.955Z,100.00
2022-12-01T16:27:57.658Z,100.00
2022-12-01T16:31:00.690Z,100.00
2022-12-01T16:34:18.520Z,100.00
2022-12-01T16:37:27.473Z,100.00
2022-12-01T16:40:30.316Z,100.00
2022-12-01T16:43:59.201Z,100.00
2022-12-01T16:47:17.487Z,100.00
2022-12-01T16:50:22.260Z,100.00
2022-12-01T16:53:24.830Z,100.00
2022-12-01T16:56:27.881Z,100.00
